This is the latest recevied weather packets stored in our database for station/object OE-11121. If no packets are shown the sender has not sent any weather packets the latest 10 day(s).
| Time | Temp. | Humidity | Pressure | Rain* | Wind** | Luminosity | Snow |
|---|---|---|---|---|---|---|---|
| 1787897132 | 18.33° C | 80% | 1013.1 hPa | 0 mm | - | 36 W/m² | - |
| 1787896532 | 18.89° C | 79% | 1013.3 hPa | 0 mm | - | 24 W/m² | - |
| 1787895705 | 18.89° C | 79% | 1013.7 hPa | 0 mm | - | 36 W/m² | - |
| 1787895333 | 18.89° C | 80% | 1014 hPa | 0 mm | - | 48 W/m² | - |
| 1787894733 | 18.33° C | 80% | 1014 hPa | 0 mm | - | 36 W/m² | - |
| 1787893906 | 18.33° C | 81% | 1014 hPa | 0 mm | - | 24 W/m² | - |
| 1787893533 | 18.33° C | 80% | 1013.6 hPa | 0 mm | - | 12 W/m² | - |
| 1787892933 | 18.89° C | 79% | 1013.3 hPa | 0 mm | - | 12 W/m² | - |
| 1787892105 | 18.33° C | 82% | 1013.5 hPa | 0 mm | - | 0 W/m² | - |
| 1787891732 | 18.33° C | 82% | 1013.4 hPa | 0 mm | - | 0 W/m² | - |
| 1787891133 | 18.33° C | 80% | 1013.4 hPa | 0 mm | - | 0 W/m² | - |
| 1787890305 | 18.89° C | 79% | 1013.7 hPa | 0 mm | - | 0 W/m² | - |
| 1787889932 | 18.33° C | 82% | 1014 hPa | 0 mm | - | 0 W/m² | - |
| 1787889333 | 18.33° C | 80% | 1014.1 hPa | 0 mm | - | 0 W/m² | - |
| 1787888732 | 18.89° C | 79% | 1014.1 hPa | 0 mm | - | 0 W/m² | - |
| 1787888132 | 18.33° C | 80% | 1014.2 hPa | 0 mm | - | 0 W/m² | - |
| 1787887532 | 18.33° C | 81% | 1014.3 hPa | 0 mm | - | 0 W/m² | - |
| 1787886329 | 19.44° C | 78% | 1014.2 hPa | 0 mm | - | 0 W/m² | - |
| 1787885733 | 18.89° C | 79% | 1014 hPa | 0 mm | - | 0 W/m² | - |
| 1787884906 | 19.44° C | 77% | 1013.8 hPa | 0 mm | - | 0 W/m² | - |
| 1787884533 | 19.44° C | 78% | 1013.9 hPa | 0 mm | - | 0 W/m² | - |
| 1787883933 | 19.44° C | 78% | 1014.1 hPa | 0 mm | - | 0 W/m² | - |
| 1787883106 | 20° C | 73% | 1013.8 hPa | 0 mm | - | 0 W/m² | - |
| 1787882733 | 19.44° C | 76% | 1013.9 hPa | 0 mm | - | 0 W/m² | - |
| 1787882126 | 20° C | 76% | 1013.9 hPa | 0 mm | - | 0 W/m² | - |
* Rain latest hour (hover to see other rain measurements)
** Current wind speed in m/s (hover to see current wind gust speed)